Terminal Aerodrome Forecast
Issued by NWS

Home | Current Version | Previous Version | Text Only | Print | Product List | Glossary On
Versions: 1 2 3 4 5 6 7 8 9 10 11 12 13 14 15 16 17 18
000
FTUS41 KBTV 091509 AAB
TAFMPV
TAF AMD
KMPV 091509Z 0915/1012 16006KT 6SM -SN BR BKN020 OVC035
      TEMPO 0916/0919 2SM -SN BR OVC020
     FM100000 VRB03KT 2SM -SN BR OVC025=

USA.gov is the U.S. government's official web portal to all federal, state and local government web resources and services.